createdAt,value
2022-10-11T00:01:41.293Z,99073.91
2022-10-11T00:04:07.854Z,99074.94
2022-10-11T00:06:34.377Z,99077.13
2022-10-11T00:09:00.844Z,99079.56
2022-10-11T00:11:27.333Z,99081.63
2022-10-11T00:13:53.852Z,99091.94
2022-10-11T00:16:20.610Z,99086.34
2022-10-11T00:18:47.119Z,99092.25
2022-10-11T00:21:15.917Z,99094.00
2022-10-11T00:23:43.309Z,99101.19
2022-10-11T00:26:11.189Z,99102.41
2022-10-11T00:28:38.432Z,99106.44
2022-10-11T00:31:10.384Z,99104.75
2022-10-11T00:33:37.098Z,99111.75
2022-10-11T00:36:04.289Z,99107.25
2022-10-11T00:38:32.108Z,99113.69
2022-10-11T00:40:59.880Z,99117.00
2022-10-11T00:43:30.109Z,99117.06
2022-10-11T00:45:56.489Z,99108.44
2022-10-11T00:48:44.479Z,99111.22
2022-10-11T00:51:24.012Z,99107.84
2022-10-11T00:53:52.023Z,99115.94
2022-10-11T00:56:27.848Z,99128.09
2022-10-11T00:58:57.496Z,99118.59
2022-10-11T01:01:24.286Z,99131.81
2022-10-11T01:03:50.795Z,99129.78
2022-10-11T01:06:17.292Z,99128.59
2022-10-11T01:08:44.350Z,99125.59
2022-10-11T01:11:17.305Z,99126.03
2022-10-11T01:14:29.001Z,99122.75
2022-10-11T01:17:16.123Z,99126.53
2022-10-11T01:20:18.934Z,99119.41
2022-10-11T01:23:07.272Z,99124.81
2022-10-11T01:25:57.028Z,99124.97
2022-10-11T01:28:41.463Z,99125.34
2022-10-11T01:31:22.406Z,99127.94
2022-10-11T01:34:24.717Z,99124.09
2022-10-11T01:37:04.007Z,99128.81
2022-10-11T01:39:40.736Z,99124.16
2022-10-11T01:42:10.885Z,99130.22
2022-10-11T01:44:39.313Z,99124.97
2022-10-11T01:47:06.077Z,99137.94
2022-10-11T01:49:32.608Z,99134.91
2022-10-11T01:52:03.469Z,99144.09
2022-10-11T01:55:04.006Z,99140.16
2022-10-11T01:58:01.275Z,99135.00
2022-10-11T02:00:35.217Z,99141.31
2022-10-11T02:03:20.383Z,99138.44
2022-10-11T02:06:12.349Z,99136.25
2022-10-11T02:08:51.665Z,99137.50
2022-10-11T02:11:31.808Z,99141.38
2022-10-11T02:14:16.320Z,99136.84
2022-10-11T02:16:47.656Z,99141.72
2022-10-11T02:19:18.625Z,99151.25
2022-10-11T02:21:52.363Z,99143.41
2022-10-11T02:24:31.029Z,99144.66
2022-10-11T02:27:00.049Z,99155.47
2022-10-11T02:29:30.059Z,99154.88
2022-10-11T02:31:58.760Z,99154.25
2022-10-11T02:34:31.377Z,99154.66
2022-10-11T02:37:16.321Z,99164.47
2022-10-11T02:39:51.722Z,99155.91
2022-10-11T02:42:26.416Z,99159.25
2022-10-11T02:45:17.488Z,99161.28
2022-10-11T02:47:44.717Z,99164.84
2022-10-11T02:50:12.899Z,99168.16
2022-10-11T02:52:39.740Z,99175.44
2022-10-11T02:55:07.308Z,99171.63
2022-10-11T02:57:33.958Z,99168.22
2022-10-11T03:00:00.390Z,99171.41
2022-10-11T03:02:26.857Z,99181.38
2022-10-11T03:04:53.330Z,99176.19
2022-10-11T03:07:19.775Z,99183.03
2022-10-11T03:09:46.352Z,99181.00
2022-10-11T03:12:12.781Z,99180.94
2022-10-11T03:14:39.259Z,99180.28
2022-10-11T03:17:30.922Z,99175.78
2022-10-11T03:19:52.341Z,99184.97
2022-10-11T03:22:18.820Z,99188.09
2022-10-11T03:24:45.331Z,99187.66
2022-10-11T03:27:11.891Z,99188.91
2022-10-11T03:29:38.437Z,99187.22
2022-10-11T03:32:05.581Z,99187.31
2022-10-11T03:34:32.041Z,99190.81
2022-10-11T03:36:58.513Z,99193.50
2022-10-11T03:39:24.981Z,99196.25
2022-10-11T03:41:51.446Z,99197.19
2022-10-11T03:44:17.926Z,99195.09
2022-10-11T03:46:44.358Z,99199.47
2022-10-11T03:49:10.815Z,99200.66
2022-10-11T03:51:37.313Z,99198.66
2022-10-11T03:54:03.834Z,99206.56
2022-10-11T03:56:30.317Z,99199.63
2022-10-11T03:58:56.827Z,99210.50
2022-10-11T04:01:23.276Z,99201.66
2022-10-11T04:03:49.842Z,99204.53
2022-10-11T04:06:16.297Z,99205.28
2022-10-11T04:08:42.824Z,99206.06
2022-10-11T04:11:09.273Z,99202.06
2022-10-11T04:13:36.352Z,99197.97
2022-10-11T04:16:03.118Z,99209.53
2022-10-11T04:20:56.400Z,99205.06
2022-10-11T04:23:22.873Z,99210.56
2022-10-11T04:25:49.293Z,99216.53
2022-10-11T04:28:15.819Z,99215.34
2022-10-11T04:30:42.307Z,99214.16
2022-10-11T04:33:11.278Z,99219.06
2022-10-11T04:35:37.801Z,99220.25
2022-10-11T04:38:04.311Z,99225.06
2022-10-11T04:40:30.770Z,99229.16
2022-10-11T04:42:57.262Z,99237.06
2022-10-11T04:45:23.776Z,99239.16
2022-10-11T04:47:50.292Z,99240.63
2022-10-11T04:50:16.850Z,99243.13
2022-10-11T04:52:43.369Z,99249.72
2022-10-11T04:55:10.945Z,99250.41
2022-10-11T04:57:37.378Z,99251.41
2022-10-11T05:00:04.960Z,99254.22
2022-10-11T05:02:31.470Z,99258.78
2022-10-11T05:04:58.451Z,99256.34
2022-10-11T05:07:25.038Z,99255.63
2022-10-11T05:09:51.497Z,99266.44
2022-10-11T05:12:17.940Z,99275.03
2022-10-11T05:14:44.490Z,99270.53
2022-10-11T05:17:10.955Z,99273.00
2022-10-11T05:19:37.520Z,99270.22
2022-10-11T05:22:03.969Z,99273.53
2022-10-11T05:24:30.644Z,99272.72
2022-10-11T05:27:02.352Z,99273.69
2022-10-11T05:29:29.731Z,99278.34
2022-10-11T05:31:56.221Z,99280.13
2022-10-11T05:34:22.717Z,99291.53
2022-10-11T05:36:49.165Z,99294.03
2022-10-11T05:39:15.764Z,99303.81
2022-10-11T05:41:42.246Z,99305.69
2022-10-11T05:44:08.994Z,99303.09
2022-10-11T05:46:35.470Z,99304.50
2022-10-11T05:49:01.911Z,99306.44
2022-10-11T05:51:28.410Z,99309.06
2022-10-11T05:53:54.909Z,99305.66
2022-10-11T05:56:24.469Z,99318.94
2022-10-11T05:58:52.025Z,99312.22
2022-10-11T06:01:25.279Z,99320.56
2022-10-11T06:03:52.417Z,99323.66
2022-10-11T06:06:19.691Z,99333.38
2022-10-11T06:08:47.093Z,99332.28
2022-10-11T06:11:16.338Z,99330.75
2022-10-11T06:13:43.644Z,99332.75
2022-10-11T06:16:11.095Z,99337.97
2022-10-11T06:18:37.609Z,99339.78
2022-10-11T06:21:04.353Z,99343.50
2022-10-11T06:23:31.039Z,99344.31
2022-10-11T06:26:02.914Z,99342.50
2022-10-11T06:28:29.966Z,99345.78
2022-10-11T06:30:56.613Z,99341.75
2022-10-11T06:33:23.670Z,99351.75
2022-10-11T06:35:50.524Z,99351.38
2022-10-11T06:38:17.024Z,99356.06
2022-10-11T06:40:43.503Z,99349.41
2022-10-11T06:43:09.956Z,99359.00
2022-10-11T06:45:36.497Z,99363.63
2022-10-11T06:48:05.564Z,99365.16
2022-10-11T06:50:58.106Z,99377.31
2022-10-11T06:53:19.229Z,99376.72
2022-10-11T06:55:45.702Z,99388.56
2022-10-11T06:58:12.135Z,99385.09
2022-10-11T07:00:38.633Z,99390.53
2022-10-11T07:03:05.123Z,99399.47
2022-10-11T07:05:32.945Z,99402.97
2022-10-11T07:07:59.382Z,99400.78
2022-10-11T07:10:26.078Z,99404.66
2022-10-11T07:12:52.624Z,99409.88
2022-10-11T07:15:19.121Z,99415.78
2022-10-11T07:17:45.696Z,99418.91
2022-10-11T07:20:12.359Z,99421.09
2022-10-11T07:22:38.785Z,99422.00
2022-10-11T07:25:05.813Z,99424.56
2022-10-11T07:27:32.376Z,99423.16
2022-10-11T07:29:58.874Z,99419.94
2022-10-11T07:32:25.440Z,99424.25
2022-10-11T07:34:51.920Z,99417.91
2022-10-11T07:37:18.370Z,99422.81
2022-10-11T07:39:44.840Z,99420.72
2022-10-11T07:42:11.302Z,99430.00
2022-10-11T07:44:37.757Z,99429.81
2022-10-11T07:47:08.915Z,99422.72
2022-10-11T07:49:36.798Z,99421.59
2022-10-11T07:52:03.365Z,99426.59
2022-10-11T07:54:29.873Z,99418.09
2022-10-11T07:56:56.373Z,99421.41
2022-10-11T07:59:22.874Z,99421.94
2022-10-11T08:01:49.630Z,99417.38
2022-10-11T08:04:16.258Z,99421.50
2022-10-11T08:06:42.719Z,99424.94
2022-10-11T08:09:09.431Z,99424.06
2022-10-11T08:11:37.319Z,99427.69
2022-10-11T08:14:08.619Z,99432.25
2022-10-11T08:16:36.411Z,99435.78
2022-10-11T08:19:03.351Z,99439.69
2022-10-11T08:21:30.449Z,99437.66
2022-10-11T08:23:57.065Z,99434.88
2022-10-11T08:26:24.084Z,99442.00
2022-10-11T08:28:50.650Z,99440.28
2022-10-11T08:31:17.526Z,99449.03
2022-10-11T08:33:44.366Z,99447.69
2022-10-11T08:36:12.030Z,99441.19
2022-10-11T08:38:39.025Z,99443.78
2022-10-11T08:41:29.461Z,99447.00
2022-10-11T08:44:24.221Z,99454.06
2022-10-11T08:47:00.524Z,99444.59
2022-10-11T08:49:32.467Z,99443.13
2022-10-11T08:52:04.526Z,99444.22
2022-10-11T08:55:11.447Z,99443.41
2022-10-11T08:57:40.029Z,99451.00
2022-10-11T09:00:15.126Z,99450.63
2022-10-11T09:03:09.043Z,99442.78
2022-10-11T09:05:58.448Z,99445.78
2022-10-11T09:08:43.592Z,99436.47
2022-10-11T09:11:30.170Z,99431.75
2022-10-11T09:14:22.873Z,99438.47
2022-10-11T09:17:08.449Z,99435.09
2022-10-11T09:19:52.224Z,99436.38
2022-10-11T09:22:38.928Z,99434.19
2022-10-11T09:25:22.982Z,99439.75
2022-10-11T09:28:10.796Z,99436.19
2022-10-11T09:30:46.552Z,99438.13
2022-10-11T09:33:24.520Z,99440.94
2022-10-11T09:35:52.081Z,99431.75
2022-10-11T09:38:41.029Z,99440.00
2022-10-11T09:41:13.429Z,99435.72
2022-10-11T09:43:40.162Z,99431.81
2022-10-11T09:46:22.429Z,99438.72
2022-10-11T09:48:50.115Z,99433.88
2022-10-11T09:51:23.737Z,99435.78
2022-10-11T09:53:53.336Z,99430.63
2022-10-11T09:56:20.675Z,99435.16
2022-10-11T09:58:47.210Z,99434.41
2022-10-11T10:01:24.338Z,99425.97
2022-10-11T10:04:09.572Z,99431.78
2022-10-11T10:06:36.821Z,99432.56
2022-10-11T10:09:26.176Z,99415.44
2022-10-11T10:11:54.989Z,99426.19
2022-10-11T10:14:30.189Z,99408.84
2022-10-11T10:17:14.459Z,99422.56
2022-10-11T10:19:50.029Z,99412.94
2022-10-11T10:22:23.323Z,99412.50
2022-10-11T10:24:51.792Z,99409.44
2022-10-11T10:27:22.600Z,99417.00
2022-10-11T10:30:07.528Z,99414.41
2022-10-11T10:32:47.559Z,99418.19
2022-10-11T10:35:49.307Z,99410.69
2022-10-11T10:38:26.778Z,99408.50
2022-10-11T10:40:58.753Z,99405.41
2022-10-11T10:43:29.744Z,99412.69
2022-10-11T10:46:11.468Z,99413.69
2022-10-11T10:49:23.630Z,99415.41
2022-10-11T10:51:51.317Z,99419.63
2022-10-11T10:54:24.986Z,99423.56
2022-10-11T10:57:13.187Z,99407.56
2022-10-11T11:00:04.254Z,99413.13
2022-10-11T11:02:50.617Z,99413.09
2022-10-11T11:05:41.431Z,99408.69
2022-10-11T11:08:44.804Z,99407.38
2022-10-11T11:11:29.652Z,99403.28
2022-10-11T11:14:14.873Z,99402.09
2022-10-11T11:17:09.193Z,99393.91
2022-10-11T11:20:14.561Z,99390.19
2022-10-11T11:23:10.101Z,99391.75
2022-10-11T11:25:58.339Z,99388.00
2022-10-11T11:28:33.847Z,99384.50
2022-10-11T11:31:11.758Z,99377.47
2022-10-11T11:33:48.520Z,99381.72
2022-10-11T11:36:23.384Z,99373.44
2022-10-11T11:38:59.737Z,99369.44
2022-10-11T11:41:30.795Z,99374.66
2022-10-11T11:44:03.793Z,99359.91
2022-10-11T11:46:40.214Z,99365.13
2022-10-11T11:49:33.228Z,99352.72
2022-10-11T11:52:00.555Z,99356.56
2022-10-11T11:54:28.294Z,99355.84
2022-10-11T11:57:18.536Z,99360.88
2022-10-11T12:00:14.642Z,99346.03
2022-10-11T12:02:57.164Z,99345.78
2022-10-11T12:05:27.875Z,99348.13
2022-10-11T12:08:02.143Z,99342.03
2022-10-11T12:11:04.389Z,99335.97
2022-10-11T12:13:38.953Z,99340.13
2022-10-11T12:16:12.229Z,99341.19
2022-10-11T12:18:57.167Z,99339.88
2022-10-11T12:21:35.284Z,99339.78
2022-10-11T12:24:20.157Z,99335.97
2022-10-11T12:26:49.162Z,99334.38
2022-10-11T12:29:18.682Z,99330.63
2022-10-11T12:31:51.231Z,99330.59
2022-10-11T12:34:34.909Z,99324.38
2022-10-11T12:37:19.625Z,99315.78
2022-10-11T12:39:48.949Z,99310.84
2022-10-11T12:42:35.355Z,99312.59
2022-10-11T12:45:10.953Z,99311.09
2022-10-11T12:47:44.821Z,99309.09
2022-10-11T12:50:39.142Z,99301.97
2022-10-11T12:53:17.712Z,99295.28
2022-10-11T12:56:01.987Z,99303.19
2022-10-11T12:58:41.136Z,99299.66
2022-10-11T13:01:34.801Z,99301.16
2022-10-11T13:04:08.440Z,99301.50
2022-10-11T13:06:47.281Z,99302.03
2022-10-11T13:09:24.915Z,99295.28
2022-10-11T13:11:56.908Z,99287.84
2022-10-11T13:14:26.028Z,99292.88
2022-10-11T13:17:04.789Z,99294.06
2022-10-11T13:19:33.962Z,99289.59
2022-10-11T13:22:06.745Z,99289.19
2022-10-11T13:24:39.899Z,99293.06
2022-10-11T13:27:07.896Z,99288.97
2022-10-11T13:29:40.338Z,99286.03
2022-10-11T13:32:16.478Z,99286.75
2022-10-11T13:34:46.867Z,99287.38
2022-10-11T13:37:19.134Z,99276.31
2022-10-11T13:39:47.038Z,99285.16
2022-10-11T13:42:16.170Z,99281.31
2022-10-11T13:44:44.616Z,99278.41
2022-10-11T13:47:17.074Z,99282.75
2022-10-11T13:49:53.248Z,99283.19
2022-10-11T13:52:22.483Z,99281.75
2022-10-11T13:55:03.949Z,99273.16
2022-10-11T13:57:48.212Z,99271.13
2022-10-11T14:00:14.687Z,99271.09
2022-10-11T14:02:49.581Z,99271.53
2022-10-11T14:05:27.172Z,99268.25
2022-10-11T14:07:53.731Z,99267.66
2022-10-11T14:10:22.195Z,99268.03
2022-10-11T14:13:04.061Z,99263.34
2022-10-11T14:15:37.523Z,99263.75
2022-10-11T14:18:41.528Z,99264.34
2022-10-11T14:21:20.301Z,99277.88
2022-10-11T14:23:49.938Z,99261.94
2022-10-11T14:26:18.942Z,99267.03
2022-10-11T14:28:49.216Z,99263.75
2022-10-11T14:31:15.719Z,99265.16
2022-10-11T14:33:42.241Z,99267.81
2022-10-11T14:36:09.917Z,99268.25
2022-10-11T14:38:36.398Z,99264.56
2022-10-11T14:41:02.830Z,99275.00
2022-10-11T14:43:29.401Z,99272.13
2022-10-11T14:45:55.885Z,99271.47
2022-10-11T14:48:43.154Z,99265.34
2022-10-11T14:51:13.057Z,99269.00
2022-10-11T14:53:45.944Z,99276.94
2022-10-11T14:56:17.744Z,99273.06
2022-10-11T14:58:46.935Z,99274.84
2022-10-11T15:01:14.122Z,99278.56
2022-10-11T15:03:40.995Z,99276.59
2022-10-11T15:06:16.038Z,99283.13
2022-10-11T15:08:42.485Z,99284.91
2022-10-11T15:11:11.125Z,99282.44
2022-10-11T15:13:37.623Z,99281.75
2022-10-11T15:16:04.520Z,99274.81
2022-10-11T15:18:31.148Z,99277.09
2022-10-11T15:20:58.170Z,99277.00
2022-10-11T15:23:24.679Z,99275.66
2022-10-11T15:25:51.249Z,99269.41
2022-10-11T15:28:28.536Z,99264.47
2022-10-11T15:30:55.291Z,99273.38
2022-10-11T15:33:22.275Z,99273.63
2022-10-11T15:35:48.737Z,99279.59
2022-10-11T15:38:21.711Z,99278.53
2022-10-11T15:40:49.062Z,99274.63
2022-10-11T15:43:18.732Z,99270.47
2022-10-11T15:46:14.981Z,99274.53
2022-10-11T15:48:45.275Z,99269.59
2022-10-11T15:51:14.914Z,99263.41
2022-10-11T15:53:48.264Z,99276.31
2022-10-11T15:56:23.237Z,99268.22
2022-10-11T15:58:53.732Z,99263.19
2022-10-11T16:01:20.846Z,99267.53
2022-10-11T16:03:48.927Z,99263.19
2022-10-11T16:06:18.839Z,99266.94
2022-10-11T16:08:50.870Z,99268.34
2022-10-11T16:11:17.617Z,99270.44
2022-10-11T16:13:45.032Z,99275.09
2022-10-11T16:16:12.457Z,99279.16
2022-10-11T16:18:39.589Z,99269.47
2022-10-11T16:21:11.031Z,99272.44
2022-10-11T16:23:38.635Z,99265.53
2022-10-11T16:26:09.058Z,99271.34
2022-10-11T16:28:36.082Z,99275.16
2022-10-11T16:31:07.885Z,99276.59
2022-10-11T16:33:34.343Z,99276.41
2022-10-11T16:36:20.803Z,99276.31
2022-10-11T16:38:47.249Z,99279.59
2022-10-11T16:41:13.716Z,99281.22
2022-10-11T16:43:40.156Z,99281.16
2022-10-11T16:46:06.984Z,99283.94
2022-10-11T16:48:33.681Z,99282.50
2022-10-11T16:51:08.067Z,99286.09
2022-10-11T16:53:35.350Z,99290.44
2022-10-11T16:56:09.472Z,99288.03
2022-10-11T16:58:36.470Z,99287.22
2022-10-11T17:01:08.058Z,99294.84
2022-10-11T17:03:34.648Z,99290.91
2022-10-11T17:06:01.242Z,99291.44
2022-10-11T17:08:28.370Z,99299.28
2022-10-11T17:10:57.898Z,99295.91
2022-10-11T17:13:24.654Z,99294.50
2022-10-11T17:15:51.187Z,99293.81
2022-10-11T17:18:17.692Z,99294.41
2022-10-11T17:20:44.374Z,99290.69
2022-10-11T17:23:10.906Z,99291.41
2022-10-11T17:25:43.016Z,99290.88
2022-10-11T17:28:09.911Z,99282.41
2022-10-11T17:30:36.579Z,99285.13
2022-10-11T17:33:03.964Z,99288.44
2022-10-11T17:35:32.102Z,99292.19
2022-10-11T17:38:05.024Z,99287.69
2022-10-11T17:40:32.528Z,99289.69
2022-10-11T17:42:58.981Z,99293.47
2022-10-11T17:45:25.497Z,99290.41
2022-10-11T17:47:51.950Z,99288.59
2022-10-11T17:50:18.417Z,99296.66
2022-10-11T17:52:44.970Z,99299.91
2022-10-11T17:55:11.488Z,99292.66
2022-10-11T17:57:37.958Z,99300.06
2022-10-11T18:00:05.808Z,99291.16
2022-10-11T18:02:32.350Z,99296.59
2022-10-11T18:04:58.854Z,99301.84
2022-10-11T18:07:25.398Z,99300.97
2022-10-11T18:09:51.860Z,99310.50
2022-10-11T18:12:18.381Z,99305.53
2022-10-11T18:14:44.804Z,99306.03
2022-10-11T18:17:11.264Z,99306.88
2022-10-11T18:19:37.843Z,99304.78
2022-10-11T18:22:06.973Z,99305.84
2022-10-11T18:24:34.184Z,99305.16
2022-10-11T18:27:00.661Z,99306.94
2022-10-11T18:29:27.172Z,99307.03
2022-10-11T18:31:53.647Z,99306.38
2022-10-11T18:34:20.106Z,99304.09
2022-10-11T18:36:47.266Z,99303.72
2022-10-11T18:39:14.646Z,99311.56
2022-10-11T18:41:44.293Z,99307.25
2022-10-11T18:44:14.045Z,99308.41
2022-10-11T18:46:41.324Z,99302.47
2022-10-11T18:49:08.750Z,99308.81
2022-10-11T18:51:40.306Z,99309.59
2022-10-11T18:54:08.288Z,99315.78
2022-10-11T18:56:36.864Z,99312.16
2022-10-11T18:59:04.659Z,99313.81
2022-10-11T19:01:38.138Z,99307.38
2022-10-11T19:04:06.013Z,99317.81
2022-10-11T19:06:41.280Z,99314.78
2022-10-11T19:09:11.377Z,99312.56
2022-10-11T19:11:38.241Z,99313.09
2022-10-11T19:14:07.851Z,99315.19
2022-10-11T19:16:37.716Z,99313.56
2022-10-11T19:19:05.486Z,99320.38
2022-10-11T19:21:32.018Z,99313.25
2022-10-11T19:23:58.479Z,99315.09
2022-10-11T19:26:34.563Z,99311.94
2022-10-11T19:29:07.859Z,99306.69
2022-10-11T19:31:36.245Z,99309.16
2022-10-11T19:34:02.999Z,99305.88
2022-10-11T19:36:33.951Z,99308.06
2022-10-11T19:39:03.990Z,99310.06
2022-10-11T19:41:30.533Z,99305.19
2022-10-11T19:43:59.867Z,99313.44
2022-10-11T19:46:44.866Z,99313.88
2022-10-11T19:49:17.435Z,99313.13
2022-10-11T19:51:43.896Z,99310.00
2022-10-11T19:54:13.453Z,99321.97
2022-10-11T19:56:40.161Z,99324.34
2022-10-11T19:59:06.890Z,99313.47
2022-10-11T20:01:34.682Z,99320.34
2022-10-11T20:04:18.772Z,99319.25
2022-10-11T20:06:56.960Z,99324.97
2022-10-11T20:09:29.432Z,99325.38
2022-10-11T20:11:57.072Z,99325.88
2022-10-11T20:14:23.698Z,99325.09
2022-10-11T20:16:50.831Z,99329.31
2022-10-11T20:19:18.186Z,99331.22
2022-10-11T20:21:45.062Z,99334.13
2022-10-11T20:24:11.821Z,99327.41
2022-10-11T20:26:39.087Z,99330.38
2022-10-11T20:29:06.218Z,99332.50
2022-10-11T20:31:34.973Z,99333.84
2022-10-11T20:34:04.116Z,99325.03
2022-10-11T20:36:31.862Z,99329.69
2022-10-11T20:38:59.712Z,99330.50
2022-10-11T20:41:31.978Z,99335.19
2022-10-11T20:43:59.716Z,99337.72
2022-10-11T20:46:28.561Z,99339.72
2022-10-11T20:49:01.586Z,99331.88
2022-10-11T20:51:30.131Z,99332.06
2022-10-11T20:53:56.779Z,99327.72
2022-10-11T20:56:23.493Z,99328.72
2022-10-11T20:58:52.365Z,99329.78
2022-10-11T21:01:26.205Z,99333.53
2022-10-11T21:03:53.401Z,99333.19
2022-10-11T21:06:20.474Z,99325.38
2022-10-11T21:08:47.027Z,99324.88
2022-10-11T21:11:13.569Z,99323.78
2022-10-11T21:13:40.604Z,99324.03
2022-10-11T21:16:13.332Z,99326.91
2022-10-11T21:18:40.456Z,99322.22
2022-10-11T21:21:09.196Z,99328.09
2022-10-11T21:23:35.815Z,99327.31
2022-10-11T21:26:04.935Z,99329.78
2022-10-11T21:28:31.836Z,99332.59
2022-10-11T21:31:10.391Z,99329.75
2022-10-11T21:33:37.796Z,99333.69
2022-10-11T21:36:08.813Z,99324.00
2022-10-11T21:38:36.178Z,99332.22
2022-10-11T21:41:04.976Z,99320.69
2022-10-11T21:43:31.555Z,99319.91
2022-10-11T21:45:58.031Z,99311.13
2022-10-11T21:48:24.524Z,99306.69
2022-10-11T21:50:54.797Z,99308.38
2022-10-11T21:53:21.500Z,99295.41
2022-10-11T21:55:47.969Z,99301.06
2022-10-11T21:58:14.517Z,99291.88
2022-10-11T22:00:41.027Z,99298.09
2022-10-11T22:03:07.624Z,99302.25
2022-10-11T22:05:34.181Z,99298.31
2022-10-11T22:08:00.629Z,99295.81
2022-10-11T22:10:27.174Z,99292.75
2022-10-11T22:12:53.769Z,99297.75
2022-10-11T22:15:20.294Z,99296.53
2022-10-11T22:17:47.033Z,99294.31
2022-10-11T22:20:13.535Z,99296.63
2022-10-11T22:22:39.994Z,99291.97
2022-10-11T22:25:07.031Z,99286.72
2022-10-11T22:27:33.483Z,99290.13
2022-10-11T22:29:59.990Z,99297.63
2022-10-11T22:32:26.478Z,99287.63
2022-10-11T22:34:52.920Z,99293.09
2022-10-11T22:37:19.516Z,99280.00
2022-10-11T22:39:45.990Z,99284.16
2022-10-11T22:42:12.455Z,99288.41
2022-10-11T22:44:38.964Z,99289.78
2022-10-11T22:47:05.535Z,99286.88
2022-10-11T22:49:32.098Z,99278.94
2022-10-11T22:51:58.562Z,99285.09
2022-10-11T22:54:25.036Z,99273.53
2022-10-11T22:56:51.577Z,99275.25
2022-10-11T22:59:18.176Z,99276.69
2022-10-11T23:01:44.648Z,99280.78
2022-10-11T23:04:11.136Z,99272.56
2022-10-11T23:06:37.699Z,99270.50
2022-10-11T23:09:04.196Z,99269.09
2022-10-11T23:11:30.666Z,99269.91
2022-10-11T23:13:57.171Z,99272.81
2022-10-11T23:16:23.649Z,99261.44
2022-10-11T23:18:53.213Z,99263.91
2022-10-11T23:21:20.229Z,99268.69
2022-10-11T23:23:46.877Z,99264.88
2022-10-11T23:26:16.852Z,99267.63
2022-10-11T23:28:44.189Z,99265.94
2022-10-11T23:31:13.621Z,99272.03
2022-10-11T23:33:40.246Z,99272.03
2022-10-11T23:36:14.110Z,99274.66
2022-10-11T23:38:40.647Z,99269.69
2022-10-11T23:41:07.182Z,99272.59
2022-10-11T23:43:33.802Z,99271.47
2022-10-11T23:46:00.608Z,99270.78
2022-10-11T23:48:27.067Z,99275.88
2022-10-11T23:50:53.562Z,99280.72
2022-10-11T23:53:20.138Z,99270.53
2022-10-11T23:55:46.683Z,99277.81
2022-10-11T23:58:13.252Z,99285.91
